Carthage, Illinois
Current Conditions -  °F | °C
As of 1:35 PM on Wednesday 17 Dec 2014 (Local Time) from KEOK Reporting Station
Few Clouds Few Clouds  
Wind Chill: 28°   Ceiling: Unl
Heat Index: 28°   Visibility: 10mi
Dew Point: 19°   Wind: 3mph
Humidity: 69%   Direction: NA
Pressure: 30.28"   Gusts: NA
Location:  40.42°N, 91.14°W
Report Text: KEOK 171935Z AUTO VRB03KT 10SM FEW021 M02/M07 A3028 RMK AO2
Loading
Personal Weather Stations






























Interactive Weather Map New forecast layout! Learn more

10-Day Weather Forecast

Advertisements
Track Severe Weather on mobile